Portada
METAR-TAF:

METAR-TAF

Aeroports :

Brighton, Anglaterra

latitud: 50-50N, longitud: 000-17W, altitud: 2 m

Observació

L'informe es va fer fa 2 hores i 32 minuts, a les 18:20 UTC
Vent 3 kt del Est/Nord-Est
Temperatura 16°C
Humitat 63%
Pressió 1029 hPa
Visibilitat 10 km o més
sense núvols per sota de 1500 mi sense presència de cumulonimbus.

METAR: EGKA 191820Z 06003KT CAVOK 16/09 Q1029

Hora: 21:52 (20:52 UTC)

Pronòstic

L'informe es va fer fa 6 hores i 56 minuts, a les 13:56 UTC
Pronòstic vàlid del 19 a les 15 UTC al 19 a les 19 UTC
Vent 8 kt del Est
Visibilitat 10 km o més
Escasses núvols a una alçada de 4500 ft

TAF: EGKA 191356Z 1915/1919 10008KT 9999 FEW045

Observacions i pronòstics meteorològics de més de 4000 aeroports (METAR i TAF).

Les estacions disponibles són els punts grocs i vermells al mapa.

Posi el ratolí al punt desitjat per veure el nom de l'estació.

Feu clic per veure les observacions i els pronòstics meteorològics.

Per canviar el mapa: feu clic els botons verds amb una creu de color negre per apropar; al botó verd amb un guió per allunyar la imatge; o en les fletxes verdes per a mapes adjacents.


METAR-TAF: